sensor_id;sensor_type;location;lat;lon;timestamp;pressure;altitude;pressure_sealevel;temperature;humidity
60019;BME280;45870;42.528;26.740;2023-04-28T00:00:52;99895.66;;;16.29;47.93
60019;BME280;45870;42.528;26.740;2023-04-28T00:03:18;99895.41;;;15.79;49.19
60019;BME280;45870;42.528;26.740;2023-04-28T00:05:44;99895.44;;;13.58;54.65
60019;BME280;45870;42.528;26.740;2023-04-28T00:08:09;99899.03;;;14.40;53.15
60019;BME280;45870;42.528;26.740;2023-04-28T00:10:35;99904.44;;;14.62;53.30
60019;BME280;45870;42.528;26.740;2023-04-28T00:13:01;99901.41;;;14.15;53.84
60019;BME280;45870;42.528;26.740;2023-04-28T00:15:26;99899.94;;;14.46;53.55
60019;BME280;45870;42.528;26.740;2023-04-28T00:17:52;99899.88;;;14.02;54.34
60019;BME280;45870;42.528;26.740;2023-04-28T00:20:18;99903.41;;;12.98;57.54
60019;BME280;45870;42.528;26.740;2023-04-28T00:22:44;99897.44;;;12.68;58.12
60019;BME280;45870;42.528;26.740;2023-04-28T00:25:09;99847.03;;;12.67;57.01
60019;BME280;45870;42.528;26.740;2023-04-28T00:27:36;99906.00;;;13.21;57.01
60019;BME280;45870;42.528;26.740;2023-04-28T00:30:01;99907.91;;;12.36;59.54
60019;BME280;45870;42.528;26.740;2023-04-28T00:32:27;99910.22;;;12.16;61.09
60019;BME280;45870;42.528;26.740;2023-04-28T00:34:53;99906.59;;;11.75;63.49
60019;BME280;45870;42.528;26.740;2023-04-28T00:37:19;99915.88;;;12.42;60.70
60019;BME280;45870;42.528;26.740;2023-04-28T00:39:45;99914.31;;;12.58;60.96
60019;BME280;45870;42.528;26.740;2023-04-28T00:42:12;99912.56;;;12.12;62.69
60019;BME280;45870;42.528;26.740;2023-04-28T00:44:38;99917.06;;;12.46;61.19
60019;BME280;45870;42.528;26.740;2023-04-28T00:47:07;99924.34;;;12.46;61.30
60019;BME280;45870;42.528;26.740;2023-04-28T00:49:35;99921.50;;;12.81;60.45
60019;BME280;45870;42.528;26.740;2023-04-28T00:52:05;99929.84;;;12.91;60.00
60019;BME280;45870;42.528;26.740;2023-04-28T00:54:34;99929.69;;;12.69;61.01
60019;BME280;45870;42.528;26.740;2023-04-28T00:57:00;99924.97;;;12.93;60.10
60019;BME280;45870;42.528;26.740;2023-04-28T00:59:30;99929.41;;;12.42;61.54
60019;BME280;45870;42.528;26.740;2023-04-28T01:01:55;99938.81;;;12.12;62.06
60019;BME280;45870;42.528;26.740;2023-04-28T01:04:22;99895.00;;;11.75;62.14
60019;BME280;45870;42.528;26.740;2023-04-28T01:06:50;99935.72;;;12.20;61.51
60019;BME280;45870;42.528;26.740;2023-04-28T01:09:17;99899.88;;;11.89;62.24
60019;BME280;45870;42.528;26.740;2023-04-28T01:11:42;99935.16;;;13.02;59.24
60019;BME280;45870;42.528;26.740;2023-04-28T01:14:08;99933.50;;;13.63;56.42
60019;BME280;45870;42.528;26.740;2023-04-28T01:16:34;99894.47;;;13.47;56.23
60019;BME280;45870;42.528;26.740;2023-04-28T01:19:01;99946.31;;;12.89;57.66
60019;BME280;45870;42.528;26.740;2023-04-28T01:21:29;99930.25;;;14.38;53.68
60019;BME280;45870;42.528;26.740;2023-04-28T01:23:57;99866.03;;;13.67;54.10
60019;BME280;45870;42.528;26.740;2023-04-28T01:26:23;99930.53;;;14.90;51.62
60019;BME280;45870;42.528;26.740;2023-04-28T01:28:49;99923.97;;;14.59;52.64
60019;BME280;45870;42.528;26.740;2023-04-28T01:31:15;99927.16;;;14.78;51.86
60019;BME280;45870;42.528;26.740;2023-04-28T01:33:41;99926.41;;;14.61;52.33
60019;BME280;45870;42.528;26.740;2023-04-28T01:36:07;99921.59;;;12.58;57.07
60019;BME280;45870;42.528;26.740;2023-04-28T01:38:33;99929.06;;;12.79;56.88
60019;BME280;45870;42.528;26.740;2023-04-28T01:40:59;99935.75;;;13.49;54.54
60019;BME280;45870;42.528;26.740;2023-04-28T01:43:27;99929.84;;;11.65;58.78
60019;BME280;45870;42.528;26.740;2023-04-28T01:45:53;99924.47;;;10.88;61.48
60019;BME280;45870;42.528;26.740;2023-04-28T01:48:18;99935.00;;;12.64;54.10
60019;BME280;45870;42.528;26.740;2023-04-28T01:50:44;99929.56;;;12.36;49.45
60019;BME280;45870;42.528;26.740;2023-04-28T01:53:10;99929.84;;;13.08;47.36
60019;BME280;45870;42.528;26.740;2023-04-28T01:55:37;99879.19;;;12.63;46.62
60019;BME280;45870;42.528;26.740;2023-04-28T01:58:02;99874.50;;;12.87;46.03
60019;BME280;45870;42.528;26.740;2023-04-28T02:00:28;99937.31;;;14.22;44.46
60019;BME280;45870;42.528;26.740;2023-04-28T02:02:54;99948.41;;;14.81;43.69
60019;BME280;45870;42.528;26.740;2023-04-28T02:05:20;99948.53;;;15.86;41.65
60019;BME280;45870;42.528;26.740;2023-04-28T02:07:46;99951.47;;;16.22;40.69
60019;BME280;45870;42.528;26.740;2023-04-28T02:10:11;99950.59;;;14.19;45.90
60019;BME280;45870;42.528;26.740;2023-04-28T02:12:37;99958.69;;;14.57;46.58
60019;BME280;45870;42.528;26.740;2023-04-28T02:15:03;99958.56;;;15.81;42.96
60019;BME280;45870;42.528;26.740;2023-04-28T02:17:29;99955.28;;;16.93;41.15
60019;BME280;45870;42.528;26.740;2023-04-28T02:19:55;99956.44;;;17.12;41.08
60019;BME280;45870;42.528;26.740;2023-04-28T02:22:22;99953.97;;;17.11;40.76
60019;BME280;45870;42.528;26.740;2023-04-28T02:24:48;99957.94;;;16.16;42.84
60019;BME280;45870;42.528;26.740;2023-04-28T02:27:13;99957.44;;;16.71;42.17
60019;BME280;45870;42.528;26.740;2023-04-28T02:29:39;99957.66;;;15.70;43.85
60019;BME280;45870;42.528;26.740;2023-04-28T02:32:05;99958.56;;;15.81;44.42
60019;BME280;45870;42.528;26.740;2023-04-28T02:34:31;99967.41;;;15.34;45.56
60019;BME280;45870;42.528;26.740;2023-04-28T02:36:57;99961.94;;;14.16;47.54
60019;BME280;45870;42.528;26.740;2023-04-28T02:39:22;99958.69;;;14.79;45.57
60019;BME280;45870;42.528;26.740;2023-04-28T02:41:51;99964.66;;;14.16;45.73
60019;BME280;45870;42.528;26.740;2023-04-28T02:44:17;99977.41;;;14.15;46.09
60019;BME280;45870;42.528;26.740;2023-04-28T02:46:43;99975.22;;;13.12;49.23
60019;BME280;45870;42.528;26.740;2023-04-28T02:49:08;99991.50;;;13.00;47.99
60019;BME280;45870;42.528;26.740;2023-04-28T02:51:34;99992.22;;;12.96;47.65
60019;BME280;45870;42.528;26.740;2023-04-28T02:54:00;99979.19;;;13.88;45.00
60019;BME280;45870;42.528;26.740;2023-04-28T02:56:25;99989.56;;;12.84;47.89
60019;BME280;45870;42.528;26.740;2023-04-28T02:58:51;99955.97;;;14.14;44.83
60019;BME280;45870;42.528;26.740;2023-04-28T03:01:17;99973.09;;;15.06;42.90
60019;BME280;45870;42.528;26.740;2023-04-28T03:03:43;99983.06;;;15.49;42.12
60019;BME280;45870;42.528;26.740;2023-04-28T03:06:08;99982.34;;;14.18;44.68
60019;BME280;45870;42.528;26.740;2023-04-28T03:08:34;99981.78;;;15.03;42.99
60019;BME280;45870;42.528;26.740;2023-04-28T03:11:00;99983.91;;;14.74;42.66
60019;BME280;45870;42.528;26.740;2023-04-28T03:13:25;99986.16;;;15.04;41.64
60019;BME280;45870;42.528;26.740;2023-04-28T03:15:51;99988.75;;;15.47;41.76
60019;BME280;45870;42.528;26.740;2023-04-28T03:18:17;99926.59;;;14.32;42.75
60019;BME280;45870;42.528;26.740;2023-04-28T03:20:43;99993.03;;;14.63;43.16
60019;BME280;45870;42.528;26.740;2023-04-28T03:23:08;99971.59;;;14.67;42.18
60019;BME280;45870;42.528;26.740;2023-04-28T03:25:34;100005.50;;;14.86;41.27
60019;BME280;45870;42.528;26.740;2023-04-28T03:28:00;100011.97;;;14.20;40.88
60019;BME280;45870;42.528;26.740;2023-04-28T03:30:26;100025.09;;;15.36;39.76
60019;BME280;45870;42.528;26.740;2023-04-28T03:32:52;100015.97;;;14.99;40.71
60019;BME280;45870;42.528;26.740;2023-04-28T03:35:18;100015.63;;;14.90;39.74
60019;BME280;45870;42.528;26.740;2023-04-28T03:37:43;100025.63;;;16.34;37.04
60019;BME280;45870;42.528;26.740;2023-04-28T03:40:09;100013.03;;;16.75;35.28
60019;BME280;45870;42.528;26.740;2023-04-28T03:42:35;100012.09;;;17.21;34.43
60019;BME280;45870;42.528;26.740;2023-04-28T03:45:01;100030.63;;;17.09;35.59
60019;BME280;45870;42.528;26.740;2023-04-28T03:47:27;100033.66;;;16.14;38.93
60019;BME280;45870;42.528;26.740;2023-04-28T03:49:53;100035.53;;;14.74;40.82
60019;BME280;45870;42.528;26.740;2023-04-28T03:52:19;100035.34;;;13.87;42.80
60019;BME280;45870;42.528;26.740;2023-04-28T03:54:44;100037.56;;;14.62;40.90
60019;BME280;45870;42.528;26.740;2023-04-28T03:57:10;100035.31;;;14.37;39.83
60019;BME280;45870;42.528;26.740;2023-04-28T03:59:37;100043.22;;;15.79;39.11
60019;BME280;45870;42.528;26.740;2023-04-28T04:02:02;100045.59;;;14.74;41.07
60019;BME280;45870;42.528;26.740;2023-04-28T04:04:28;100050.34;;;15.59;40.09
60019;BME280;45870;42.528;26.740;2023-04-28T04:06:54;100047.34;;;16.66;37.52
60019;BME280;45870;42.528;26.740;2023-04-28T04:09:20;100056.41;;;14.14;42.33
60019;BME280;45870;42.528;26.740;2023-04-28T04:11:46;100049.13;;;16.45;38.16
60019;BME280;45870;42.528;26.740;2023-04-28T04:14:11;100046.00;;;18.16;34.32
60019;BME280;45870;42.528;26.740;2023-04-28T04:16:37;100062.91;;;18.48;33.05
60019;BME280;45870;42.528;26.740;2023-04-28T04:19:02;100058.38;;;15.22;41.76
60019;BME280;45870;42.528;26.740;2023-04-28T04:21:28;100060.13;;;17.27;36.53
60019;BME280;45870;42.528;26.740;2023-04-28T04:23:54;100057.75;;;18.17;35.56
60019;BME280;45870;42.528;26.740;2023-04-28T04:26:20;100011.03;;;17.42;36.27
60019;BME280;45870;42.528;26.740;2023-04-28T04:28:45;100069.66;;;17.25;37.89
60019;BME280;45870;42.528;26.740;2023-04-28T04:31:11;100026.72;;;15.11;41.30
60019;BME280;45870;42.528;26.740;2023-04-28T04:33:36;100074.16;;;14.21;44.35
60019;BME280;45870;42.528;26.740;2023-04-28T04:36:03;100079.69;;;15.52;43.30
60019;BME280;45870;42.528;26.740;2023-04-28T04:38:29;100082.13;;;14.28;45.85
60019;BME280;45870;42.528;26.740;2023-04-28T04:40:55;100091.16;;;15.59;43.08
60019;BME280;45870;42.528;26.740;2023-04-28T04:43:21;100090.69;;;15.67;42.14
60019;BME280;45870;42.528;26.740;2023-04-28T04:45:47;100090.72;;;15.18;42.92
60019;BME280;45870;42.528;26.740;2023-04-28T04:48:13;100094.31;;;14.09;45.21
60019;BME280;45870;42.528;26.740;2023-04-28T04:50:39;100091.28;;;14.77;43.79
60019;BME280;45870;42.528;26.740;2023-04-28T04:53:05;100096.41;;;14.73;42.60
60019;BME280;45870;42.528;26.740;2023-04-28T04:55:31;100095.94;;;14.26;43.16
60019;BME280;45870;42.528;26.740;2023-04-28T04:57:57;100072.66;;;14.47;42.98
60019;BME280;45870;42.528;26.740;2023-04-28T05:00:22;100100.81;;;15.23;42.25
60019;BME280;45870;42.528;26.740;2023-04-28T05:02:48;100112.03;;;15.26;41.07
60019;BME280;45870;42.528;26.740;2023-04-28T05:05:14;100108.56;;;14.71;41.87
60019;BME280;45870;42.528;26.740;2023-04-28T05:07:39;100114.16;;;16.36;39.05
60019;BME280;45870;42.528;26.740;2023-04-28T05:10:05;100117.28;;;16.50;39.18
60019;BME280;45870;42.528;26.740;2023-04-28T05:12:31;100109.72;;;16.62;39.15
60019;BME280;45870;42.528;26.740;2023-04-28T05:14:57;100114.50;;;18.95;34.70
60019;BME280;45870;42.528;26.740;2023-04-28T05:17:22;100116.81;;;19.81;33.77
60019;BME280;45870;42.528;26.740;2023-04-28T05:19:49;100120.63;;;19.85;31.95
60019;BME280;45870;42.528;26.740;2023-04-28T05:22:15;100122.94;;;17.53;34.92
60019;BME280;45870;42.528;26.740;2023-04-28T05:24:40;100114.25;;;16.93;37.40
60019;BME280;45870;42.528;26.740;2023-04-28T05:27:06;100121.94;;;20.61;30.94
60019;BME280;45870;42.528;26.740;2023-04-28T05:29:31;100127.13;;;17.65;32.59
60019;BME280;45870;42.528;26.740;2023-04-28T05:31:57;100117.50;;;16.12;34.90
60019;BME280;45870;42.528;26.740;2023-04-28T05:34:23;100125.50;;;17.07;34.53
60019;BME280;45870;42.528;26.740;2023-04-28T05:36:49;100120.16;;;14.44;40.46
60019;BME280;45870;42.528;26.740;2023-04-28T05:39:16;100125.44;;;16.50;36.51
60019;BME280;45870;42.528;26.740;2023-04-28T05:41:41;100130.69;;;14.24;40.38
60019;BME280;45870;42.528;26.740;2023-04-28T05:44:07;100134.69;;;15.59;37.49
60019;BME280;45870;42.528;26.740;2023-04-28T05:46:33;100133.59;;;14.73;39.18
60019;BME280;45870;42.528;26.740;2023-04-28T05:48:59;100132.81;;;15.37;37.09
60019;BME280;45870;42.528;26.740;2023-04-28T05:51:25;99937.31;;;15.78;32.70
60019;BME280;45870;42.528;26.740;2023-04-28T05:53:51;100144.00;;;16.53;38.57
60019;BME280;45870;42.528;26.740;2023-04-28T05:56:17;100136.53;;;15.10;37.04
60019;BME280;45870;42.528;26.740;2023-04-28T05:58:43;100138.69;;;15.29;36.67
60019;BME280;45870;42.528;26.740;2023-04-28T06:01:09;100142.09;;;14.26;39.52
60019;BME280;45870;42.528;26.740;2023-04-28T06:03:36;100137.78;;;15.45;37.21
60019;BME280;45870;42.528;26.740;2023-04-28T06:06:01;100138.81;;;15.18;37.07
60019;BME280;45870;42.528;26.740;2023-04-28T06:08:27;100135.59;;;15.64;37.25
60019;BME280;45870;42.528;26.740;2023-04-28T06:10:53;100146.31;;;15.76;39.27
60019;BME280;45870;42.528;26.740;2023-04-28T06:13:18;100142.59;;;17.44;34.77
60019;BME280;45870;42.528;26.740;2023-04-28T06:15:44;100139.69;;;19.62;32.40
60019;BME280;45870;42.528;26.740;2023-04-28T06:18:09;100148.53;;;19.43;27.84
60019;BME280;45870;42.528;26.740;2023-04-28T06:20:35;100144.88;;;19.63;29.52
60019;BME280;45870;42.528;26.740;2023-04-28T06:23:01;100148.97;;;21.25;26.27
60019;BME280;45870;42.528;26.740;2023-04-28T06:25:28;100145.38;;;21.48;27.07
60019;BME280;45870;42.528;26.740;2023-04-28T06:27:54;100148.81;;;22.33;26.78
60019;BME280;45870;42.528;26.740;2023-04-28T06:30:23;100150.75;;;20.29;24.79
60019;BME280;45870;42.528;26.740;2023-04-28T06:32:49;100098.00;;;20.66;24.77
60019;BME280;45870;42.528;26.740;2023-04-28T06:35:15;100157.31;;;21.57;23.29
60019;BME280;45870;42.528;26.740;2023-04-28T06:37:41;100158.13;;;20.63;24.92
60019;BME280;45870;42.528;26.740;2023-04-28T06:40:08;100161.78;;;19.75;23.98
60019;BME280;45870;42.528;26.740;2023-04-28T06:42:34;99973.38;;;19.33;26.13
60019;BME280;45870;42.528;26.740;2023-04-28T06:45:00;100157.22;;;20.43;24.03
60019;BME280;45870;42.528;26.740;2023-04-28T06:47:25;100158.81;;;20.11;26.93
60019;BME280;45870;42.528;26.740;2023-04-28T06:49:51;100165.28;;;19.81;25.53
60019;BME280;45870;42.528;26.740;2023-04-28T06:52:17;100157.63;;;21.13;23.40
60019;BME280;45870;42.528;26.740;2023-04-28T06:54:42;100132.03;;;21.60;21.82
60019;BME280;45870;42.528;26.740;2023-04-28T06:57:08;100149.22;;;19.69;25.51
60019;BME280;45870;42.528;26.740;2023-04-28T06:59:34;100155.34;;;20.34;24.08
60019;BME280;45870;42.528;26.740;2023-04-28T07:02:00;100155.69;;;20.27;23.96
60019;BME280;45870;42.528;26.740;2023-04-28T07:04:26;100116.75;;;19.53;26.27
60019;BME280;45870;42.528;26.740;2023-04-28T07:06:52;100167.47;;;21.80;24.00
60019;BME280;45870;42.528;26.740;2023-04-28T07:09:17;100157.97;;;22.10;22.73
60019;BME280;45870;42.528;26.740;2023-04-28T07:11:44;100110.72;;;20.86;26.59
60019;BME280;45870;42.528;26.740;2023-04-28T07:14:09;100149.34;;;19.44;25.62
60019;BME280;45870;42.528;26.740;2023-04-28T07:16:35;100149.53;;;21.46;27.20
60019;BME280;45870;42.528;26.740;2023-04-28T07:19:01;100155.25;;;20.10;23.79
60019;BME280;45870;42.528;26.740;2023-04-28T07:21:27;100155.78;;;20.51;24.45
60019;BME280;45870;42.528;26.740;2023-04-28T07:23:53;99967.44;;;19.60;24.59
60019;BME280;45870;42.528;26.740;2023-04-28T07:26:24;100153.53;;;20.19;24.98
60019;BME280;45870;42.528;26.740;2023-04-28T07:28:49;100150.91;;;21.24;24.07
60019;BME280;45870;42.528;26.740;2023-04-28T07:31:16;100145.84;;;19.82;24.29
60019;BME280;45870;42.528;26.740;2023-04-28T07:33:42;100152.72;;;19.16;26.83
60019;BME280;45870;42.528;26.740;2023-04-28T07:36:08;100131.53;;;20.87;24.78
60019;BME280;45870;42.528;26.740;2023-04-28T07:38:34;100153.06;;;21.70;21.71
60019;BME280;45870;42.528;26.740;2023-04-28T07:41:02;100137.09;;;22.09;23.74
60019;BME280;45870;42.528;26.740;2023-04-28T07:43:28;100071.63;;;20.47;22.31
60019;BME280;45870;42.528;26.740;2023-04-28T07:45:54;100134.34;;;21.06;22.86
60019;BME280;45870;42.528;26.740;2023-04-28T07:48:20;100133.38;;;19.66;25.56
60019;BME280;45870;42.528;26.740;2023-04-28T07:50:46;100114.78;;;20.36;22.93
60019;BME280;45870;42.528;26.740;2023-04-28T07:53:11;100125.22;;;18.67;24.96
60019;BME280;45870;42.528;26.740;2023-04-28T07:55:37;100127.88;;;20.44;24.03
60019;BME280;45870;42.528;26.740;2023-04-28T07:58:03;100120.59;;;18.37;27.60
60019;BME280;45870;42.528;26.740;2023-04-28T08:00:28;100121.69;;;19.40;24.32
60019;BME280;45870;42.528;26.740;2023-04-28T08:02:54;100113.78;;;17.02;27.21
60019;BME280;45870;42.528;26.740;2023-04-28T08:05:22;100114.03;;;18.63;25.91
60019;BME280;45870;42.528;26.740;2023-04-28T08:07:47;100133.56;;;20.14;25.23
60019;BME280;45870;42.528;26.740;2023-04-28T08:10:13;100123.06;;;18.43;28.50
60019;BME280;45870;42.528;26.740;2023-04-28T08:12:38;100132.38;;;19.91;25.48
60019;BME280;45870;42.528;26.740;2023-04-28T08:15:06;100130.75;;;19.85;25.63
60019;BME280;45870;42.528;26.740;2023-04-28T08:17:31;100055.75;;;19.32;24.15
60019;BME280;45870;42.528;26.740;2023-04-28T08:19:57;100116.53;;;19.29;25.33
60019;BME280;45870;42.528;26.740;2023-04-28T08:22:23;100120.25;;;20.65;24.23
60019;BME280;45870;42.528;26.740;2023-04-28T08:24:49;100116.22;;;19.35;25.80
60019;BME280;45870;42.528;26.740;2023-04-28T08:27:14;100119.03;;;19.79;24.02
60019;BME280;45870;42.528;26.740;2023-04-28T08:29:40;100126.28;;;18.81;24.75
60019;BME280;45870;42.528;26.740;2023-04-28T08:32:06;100111.53;;;20.24;25.41
60019;BME280;45870;42.528;26.740;2023-04-28T08:34:32;100040.69;;;20.41;23.55
60019;BME280;45870;42.528;26.740;2023-04-28T08:36:58;100111.78;;;19.60;23.84
60019;BME280;45870;42.528;26.740;2023-04-28T08:39:24;100105.75;;;19.97;27.18
60019;BME280;45870;42.528;26.740;2023-04-28T08:41:51;100098.59;;;18.98;27.32
60019;BME280;45870;42.528;26.740;2023-04-28T08:44:17;100100.75;;;20.04;25.12
60019;BME280;45870;42.528;26.740;2023-04-28T08:46:44;100105.25;;;19.40;27.17
60019;BME280;45870;42.528;26.740;2023-04-28T08:49:17;100116.63;;;20.69;24.13
60019;BME280;45870;42.528;26.740;2023-04-28T08:51:49;100108.25;;;20.56;24.30
60019;BME280;45870;42.528;26.740;2023-04-28T08:54:18;100102.16;;;19.03;24.81
60019;BME280;45870;42.528;26.740;2023-04-28T08:56:45;100056.63;;;19.27;25.87
60019;BME280;45870;42.528;26.740;2023-04-28T08:59:12;100102.66;;;19.69;24.80
60019;BME280;45870;42.528;26.740;2023-04-28T09:01:37;100098.69;;;18.72;26.43
60019;BME280;45870;42.528;26.740;2023-04-28T09:04:04;100098.38;;;17.53;28.19
60019;BME280;45870;42.528;26.740;2023-04-28T09:06:33;100095.19;;;18.26;29.64
60019;BME280;45870;42.528;26.740;2023-04-28T09:09:21;100108.47;;;18.93;26.69
60019;BME280;45870;42.528;26.740;2023-04-28T09:14:16;100099.41;;;17.26;29.32
60019;BME280;45870;42.528;26.740;2023-04-28T09:16:42;100078.88;;;19.06;27.27
60019;BME280;45870;42.528;26.740;2023-04-28T09:19:08;100083.44;;;19.25;25.82
60019;BME280;45870;42.528;26.740;2023-04-28T09:21:48;100094.38;;;18.61;28.74
60019;BME280;45870;42.528;26.740;2023-04-28T09:24:37;100092.34;;;18.92;24.84
60019;BME280;45870;42.528;26.740;2023-04-28T09:27:11;100092.53;;;20.66;25.06
60019;BME280;45870;42.528;26.740;2023-04-28T09:29:38;100086.22;;;20.66;23.56
60019;BME280;45870;42.528;26.740;2023-04-28T09:32:20;100098.97;;;22.35;23.55
60019;BME280;45870;42.528;26.740;2023-04-28T09:34:48;100082.63;;;21.18;24.69
60019;BME280;45870;42.528;26.740;2023-04-28T09:37:19;100080.72;;;17.95;28.38
60019;BME280;45870;42.528;26.740;2023-04-28T09:39:50;100082.09;;;16.90;28.54
60019;BME280;45870;42.528;26.740;2023-04-28T09:42:42;100058.66;;;18.96;26.45
60019;BME280;45870;42.528;26.740;2023-04-28T09:45:11;100087.25;;;19.78;25.18
60019;BME280;45870;42.528;26.740;2023-04-28T09:47:42;100084.53;;;20.12;26.75
60019;BME280;45870;42.528;26.740;2023-04-28T09:50:10;100080.94;;;18.70;27.08
60019;BME280;45870;42.528;26.740;2023-04-28T09:52:40;100065.41;;;18.20;25.54
60019;BME280;45870;42.528;26.740;2023-04-28T09:55:07;100073.03;;;18.38;28.30
60019;BME280;45870;42.528;26.740;2023-04-28T09:57:37;100069.78;;;18.26;28.03
60019;BME280;45870;42.528;26.740;2023-04-28T10:00:04;100059.66;;;18.31;27.38
60019;BME280;45870;42.528;26.740;2023-04-28T10:02:32;100045.13;;;20.84;26.08
60019;BME280;45870;42.528;26.740;2023-04-28T10:04:58;100059.50;;;17.05;27.36
60019;BME280;45870;42.528;26.740;2023-04-28T10:07:25;100060.22;;;17.63;26.90
60019;BME280;45870;42.528;26.740;2023-04-28T10:09:51;100058.03;;;16.77;29.00
60019;BME280;45870;42.528;26.740;2023-04-28T10:12:22;100060.19;;;15.38;30.64
60019;BME280;45870;42.528;26.740;2023-04-28T10:14:49;100008.53;;;17.21;28.09
60019;BME280;45870;42.528;26.740;2023-04-28T10:17:16;100059.41;;;17.92;29.09
60019;BME280;45870;42.528;26.740;2023-04-28T10:19:46;100057.91;;;17.09;29.37
60019;BME280;45870;42.528;26.740;2023-04-28T10:27:42;100062.16;;;20.00;24.63
60019;BME280;45870;42.528;26.740;2023-04-28T10:30:18;100055.31;;;18.10;29.30
60019;BME280;45870;42.528;26.740;2023-04-28T10:32:44;100055.00;;;18.27;30.91
60019;BME280;45870;42.528;26.740;2023-04-28T10:38:04;100045.97;;;20.04;25.27
60019;BME280;45870;42.528;26.740;2023-04-28T10:43:04;100041.75;;;19.82;29.05
60019;BME280;45870;42.528;26.740;2023-04-28T10:58:41;100033.19;;;17.91;28.44
60019;BME280;45870;42.528;26.740;2023-04-28T11:03:56;100027.88;;;18.71;30.06
60019;BME280;45870;42.528;26.740;2023-04-28T11:06:34;100025.25;;;18.05;28.21
60019;BME280;45870;42.528;26.740;2023-04-28T11:09:03;100028.72;;;20.32;24.82
60019;BME280;45870;42.528;26.740;2023-04-28T11:16:50;100034.41;;;20.40;31.03
60019;BME280;45870;42.528;26.740;2023-04-28T11:19:23;100031.53;;;20.22;25.21
60019;BME280;45870;42.528;26.740;2023-04-28T11:21:50;100030.19;;;17.88;28.46
60019;BME280;45870;42.528;26.740;2023-04-28T11:24:16;100027.50;;;18.98;28.74
60019;BME280;45870;42.528;26.740;2023-04-28T11:26:43;100037.50;;;17.47;26.88
60019;BME280;45870;42.528;26.740;2023-04-28T11:29:09;100023.09;;;17.82;27.68
60019;BME280;45870;42.528;26.740;2023-04-28T11:31:36;100018.75;;;19.39;29.66
60019;BME280;45870;42.528;26.740;2023-04-28T11:34:04;100023.03;;;19.12;25.70
60019;BME280;45870;42.528;26.740;2023-04-28T11:38:58;100030.69;;;19.98;26.92
60019;BME280;45870;42.528;26.740;2023-04-28T11:41:24;100030.75;;;21.54;26.05
60019;BME280;45870;42.528;26.740;2023-04-28T11:43:51;99975.19;;;21.24;23.44
60019;BME280;45870;42.528;26.740;2023-04-28T11:46:22;100036.28;;;22.05;24.47
60019;BME280;45870;42.528;26.740;2023-04-28T11:48:58;100034.72;;;21.05;25.28
60019;BME280;45870;42.528;26.740;2023-04-28T11:51:29;99982.56;;;19.04;27.37
60019;BME280;45870;42.528;26.740;2023-04-28T11:53:56;100031.81;;;20.49;25.96
60019;BME280;45870;42.528;26.740;2023-04-28T11:56:22;100025.03;;;20.13;25.92
60019;BME280;45870;42.528;26.740;2023-04-28T11:59:04;100032.03;;;19.66;26.02
60019;BME280;45870;42.528;26.740;2023-04-28T12:01:33;100028.00;;;19.54;27.30
60019;BME280;45870;42.528;26.740;2023-04-28T12:04:02;100018.38;;;18.38;28.23
60019;BME280;45870;42.528;26.740;2023-04-28T12:06:28;100027.88;;;20.03;25.30
60019;BME280;45870;42.528;26.740;2023-04-28T12:08:54;100021.06;;;21.00;24.30
60019;BME280;45870;42.528;26.740;2023-04-28T12:11:20;100022.59;;;21.49;23.15
60019;BME280;45870;42.528;26.740;2023-04-28T12:14:05;100022.75;;;21.89;24.82
60019;BME280;45870;42.528;26.740;2023-04-28T12:16:39;99983.66;;;20.14;24.97
60019;BME280;45870;42.528;26.740;2023-04-28T12:19:08;100013.28;;;20.65;22.83
60019;BME280;45870;42.528;26.740;2023-04-28T12:21:37;99998.13;;;19.91;27.12
60019;BME280;45870;42.528;26.740;2023-04-28T12:24:20;100010.81;;;19.48;27.46
60019;BME280;45870;42.528;26.740;2023-04-28T12:26:47;100018.38;;;19.12;26.04
60019;BME280;45870;42.528;26.740;2023-04-28T12:29:38;100015.50;;;20.39;25.95
60019;BME280;45870;42.528;26.740;2023-04-28T12:32:09;100010.28;;;21.27;24.26
60019;BME280;45870;42.528;26.740;2023-04-28T12:34:36;100001.44;;;21.81;25.36
60019;BME280;45870;42.528;26.740;2023-04-28T12:37:04;99991.47;;;20.26;24.79
60019;BME280;45870;42.528;26.740;2023-04-28T12:39:35;99999.25;;;21.65;25.08
60019;BME280;45870;42.528;26.740;2023-04-28T12:42:02;100000.41;;;20.65;27.25
60019;BME280;45870;42.528;26.740;2023-04-28T12:44:32;100005.09;;;21.45;26.43
60019;BME280;45870;42.528;26.740;2023-04-28T12:47:08;99999.19;;;19.61;26.44
60019;BME280;45870;42.528;26.740;2023-04-28T12:49:36;99951.31;;;19.59;27.95
60019;BME280;45870;42.528;26.740;2023-04-28T12:52:03;100004.06;;;20.56;27.09
60019;BME280;45870;42.528;26.740;2023-04-28T12:54:29;99981.44;;;18.61;28.01
60019;BME280;45870;42.528;26.740;2023-04-28T12:56:55;99972.56;;;18.89;28.04
60019;BME280;45870;42.528;26.740;2023-04-28T12:59:21;99980.78;;;20.24;25.81
60019;BME280;45870;42.528;26.740;2023-04-28T13:01:47;99988.88;;;22.13;21.67
60019;BME280;45870;42.528;26.740;2023-04-28T13:04:13;99974.97;;;23.13;23.32
60019;BME280;45870;42.528;26.740;2023-04-28T13:06:39;99955.91;;;21.62;24.20
60019;BME280;45870;42.528;26.740;2023-04-28T13:09:12;99983.16;;;20.60;24.72
60019;BME280;45870;42.528;26.740;2023-04-28T13:11:40;99974.31;;;22.39;25.14
60019;BME280;45870;42.528;26.740;2023-04-28T13:14:06;99986.09;;;21.29;22.62
60019;BME280;45870;42.528;26.740;2023-04-28T13:16:32;99980.78;;;21.70;22.99
60019;BME280;45870;42.528;26.740;2023-04-28T13:18:59;99965.66;;;22.46;22.30